createdAt,value
2022-09-02T00:01:24.127Z,10.52
2022-09-02T00:03:52.917Z,8.60
2022-09-02T00:06:21.553Z,5.20
2022-09-02T00:08:50.250Z,8.07
2022-09-02T00:11:23.495Z,10.60
2022-09-02T00:13:53.098Z,7.35
2022-09-02T00:16:23.947Z,11.00
2022-09-02T00:18:53.845Z,9.77
2022-09-02T00:21:22.957Z,7.78
2022-09-02T00:23:53.202Z,8.63
2022-09-02T00:26:24.781Z,6.05
2022-09-02T00:28:56.271Z,8.75
2022-09-02T00:31:27.650Z,9.75
2022-09-02T00:33:56.552Z,7.78
2022-09-02T00:36:25.051Z,8.55
2022-09-02T00:38:53.701Z,10.52
2022-09-02T00:41:27.072Z,8.10
2022-09-02T00:43:58.154Z,8.00
2022-09-02T00:46:30.429Z,7.90
2022-09-02T00:49:05.420Z,9.23
2022-09-02T00:51:42.899Z,6.65
2022-09-02T00:54:14.384Z,8.02
2022-09-02T00:56:55.654Z,10.70
2022-09-02T00:59:33.000Z,9.57
2022-09-02T01:02:01.857Z,11.50
2022-09-02T01:04:30.631Z,8.38
2022-09-02T01:06:59.127Z,7.18
2022-09-02T01:09:27.754Z,11.30
2022-09-02T01:11:58.739Z,8.80
2022-09-02T01:14:28.719Z,10.73
2022-09-02T01:17:01.303Z,7.40
2022-09-02T01:19:35.116Z,7.75
2022-09-02T01:22:16.390Z,7.28
2022-09-02T01:24:45.018Z,8.95
2022-09-02T01:27:17.311Z,12.25
2022-09-02T01:29:46.508Z,11.35
2022-09-02T01:32:15.284Z,5.88
2022-09-02T01:34:44.580Z,7.75
2022-09-02T01:37:15.041Z,8.63
2022-09-02T01:39:44.447Z,8.52
2022-09-02T01:42:13.347Z,13.15
2022-09-02T01:44:45.316Z,6.45
2022-09-02T01:47:14.913Z,9.02
2022-09-02T01:49:43.989Z,6.95
2022-09-02T01:52:15.866Z,7.43
2022-09-02T01:54:44.758Z,8.55
2022-09-02T01:57:15.176Z,10.50
2022-09-02T01:59:46.552Z,9.27
2022-09-02T02:02:16.250Z,7.47
2022-09-02T02:04:46.264Z,9.30
2022-09-02T02:07:19.322Z,11.73
2022-09-02T02:09:48.636Z,10.55
2022-09-02T02:12:18.025Z,9.68
2022-09-02T02:14:47.026Z,15.57
2022-09-02T02:17:15.649Z,11.95
2022-09-02T02:19:45.368Z,9.02
2022-09-02T02:22:14.334Z,6.18
2022-09-02T02:24:44.554Z,10.00
2022-09-02T02:27:13.183Z,7.00
2022-09-02T02:29:41.917Z,13.05
2022-09-02T02:32:10.747Z,7.65
2022-09-02T02:34:40.702Z,8.57
2022-09-02T02:37:09.205Z,8.70
2022-09-02T02:39:37.589Z,8.45
2022-09-02T02:42:08.596Z,10.27
2022-09-02T02:44:39.009Z,11.18
2022-09-02T02:47:09.638Z,5.40
2022-09-02T02:49:40.162Z,8.68
2022-09-02T02:52:09.754Z,7.55
2022-09-02T02:54:38.262Z,6.97
2022-09-02T02:57:09.204Z,11.63
2022-09-02T02:59:38.600Z,6.82
2022-09-02T03:02:09.598Z,5.82
2022-09-02T03:04:40.412Z,9.18
2022-09-02T03:07:09.397Z,6.72
2022-09-02T03:09:41.073Z,6.22
2022-09-02T03:12:11.489Z,4.72
2022-09-02T03:14:40.148Z,10.80
2022-09-02T03:17:09.388Z,9.55
2022-09-02T03:19:37.981Z,8.05
2022-09-02T03:22:07.800Z,5.72
2022-09-02T03:24:36.475Z,10.57
2022-09-02T03:27:05.222Z,9.43
2022-09-02T03:29:35.612Z,6.75
2022-09-02T03:32:05.138Z,6.00
2022-09-02T03:34:36.343Z,9.48
2022-09-02T03:37:06.240Z,10.18
2022-09-02T03:39:35.164Z,9.63
2022-09-02T03:42:03.575Z,12.45
2022-09-02T03:44:35.900Z,7.97
2022-09-02T03:47:04.325Z,6.38
2022-09-02T03:49:33.244Z,11.95
2022-09-02T03:52:02.077Z,7.15
2022-09-02T03:54:31.103Z,9.43
2022-09-02T03:56:59.524Z,7.35
2022-09-02T03:59:28.756Z,8.40
2022-09-02T04:01:59.015Z,7.35
2022-09-02T04:04:27.599Z,7.80
2022-09-02T04:06:56.125Z,9.50
2022-09-02T04:09:24.760Z,11.23
2022-09-02T04:11:53.850Z,5.82
2022-09-02T04:14:22.478Z,8.30
2022-09-02T04:16:51.187Z,10.55
2022-09-02T04:19:23.444Z,9.73
2022-09-02T04:21:52.074Z,7.97
2022-09-02T04:24:20.634Z,8.60
2022-09-02T04:26:49.200Z,7.15
2022-09-02T04:29:19.057Z,8.48
2022-09-02T04:31:47.707Z,7.82
2022-09-02T04:34:16.091Z,7.47
2022-09-02T04:36:46.082Z,7.88
2022-09-02T04:39:17.491Z,9.35
2022-09-02T04:41:47.128Z,11.60
2022-09-02T04:44:15.916Z,10.75
2022-09-02T04:46:44.644Z,9.00
2022-09-02T04:49:13.368Z,14.70
2022-09-02T04:51:41.835Z,12.32
2022-09-02T04:54:12.080Z,8.73
2022-09-02T04:56:40.807Z,9.40
2022-09-02T04:59:09.450Z,9.75
2022-09-02T05:01:37.956Z,9.43
2022-09-02T05:04:09.924Z,8.88
2022-09-02T05:06:44.106Z,10.48
2022-09-02T05:09:15.880Z,12.70
2022-09-02T05:11:44.332Z,10.77
2022-09-02T05:14:13.689Z,10.25
2022-09-02T05:16:45.860Z,9.52
2022-09-02T05:19:14.798Z,11.82
2022-09-02T05:21:45.000Z,10.02
2022-09-02T05:24:15.984Z,12.70
2022-09-02T05:26:45.144Z,9.60
2022-09-02T05:29:16.035Z,11.95
2022-09-02T05:31:44.968Z,10.55
2022-09-02T05:34:13.635Z,9.88
2022-09-02T05:36:42.282Z,9.93
2022-09-02T05:39:10.822Z,10.48
2022-09-02T05:41:41.453Z,10.20
2022-09-02T05:44:10.520Z,8.98
2022-09-02T05:46:39.202Z,10.98
2022-09-02T05:49:07.914Z,9.13
2022-09-02T05:51:42.861Z,10.85
2022-09-02T05:54:14.916Z,10.65
2022-09-02T05:56:47.208Z,10.70
2022-09-02T05:59:16.729Z,10.68
2022-09-02T06:01:45.528Z,8.88
2022-09-02T06:04:14.341Z,11.10
2022-09-02T06:06:43.372Z,12.35
2022-09-02T06:09:14.293Z,10.05
2022-09-02T06:11:49.705Z,10.20
2022-09-02T06:14:22.042Z,11.07
2022-09-02T06:16:51.906Z,11.70
2022-09-02T06:19:20.864Z,12.63
2022-09-02T06:21:50.575Z,11.45
2022-09-02T06:24:18.981Z,12.80
2022-09-02T06:26:49.392Z,13.63
2022-09-02T06:29:18.250Z,10.20
2022-09-02T06:31:48.389Z,13.30
2022-09-02T06:34:18.777Z,13.13
2022-09-02T06:36:50.043Z,9.88
2022-09-02T06:39:23.572Z,10.02
2022-09-02T06:41:53.573Z,10.40
2022-09-02T06:44:23.564Z,14.18
2022-09-02T06:46:57.099Z,10.98
2022-09-02T06:49:27.390Z,10.52
2022-09-02T06:51:57.350Z,14.48
2022-09-02T06:54:26.143Z,9.98
2022-09-02T06:56:56.439Z,13.30
2022-09-02T06:59:25.660Z,13.32
2022-09-02T07:01:54.445Z,13.32
2022-09-02T07:04:41.184Z,8.68
2022-09-02T07:07:12.359Z,13.63
2022-09-02T07:09:41.205Z,13.43
2022-09-02T07:12:12.211Z,17.40
2022-09-02T07:14:42.521Z,8.77
2022-09-02T07:17:13.147Z,12.20
2022-09-02T07:19:41.679Z,11.82
2022-09-02T07:22:10.328Z,14.90
2022-09-02T07:24:39.605Z,14.27
2022-09-02T07:27:11.397Z,12.68
2022-09-02T07:29:41.537Z,15.60
2022-09-02T07:32:10.458Z,11.27
2022-09-02T07:34:39.090Z,17.08
2022-09-02T07:37:10.845Z,11.68
2022-09-02T07:39:40.019Z,13.18
2022-09-02T07:42:13.503Z,13.98
2022-09-02T07:44:42.207Z,12.68
2022-09-02T07:47:10.687Z,14.60
2022-09-02T07:52:30.025Z,10.98
2022-09-02T07:54:58.675Z,23.35
2022-09-02T07:57:28.919Z,15.35
2022-09-02T07:59:57.607Z,20.13
2022-09-02T08:02:26.434Z,16.75
2022-09-02T08:04:55.119Z,18.38
2022-09-02T08:07:24.705Z,11.65
2022-09-02T08:09:56.056Z,18.38
2022-09-02T08:12:24.489Z,19.27
2022-09-02T08:14:54.500Z,18.40
2022-09-02T08:17:23.431Z,17.27
2022-09-02T08:19:53.761Z,19.13
2022-09-02T08:22:22.270Z,16.05
2022-09-02T08:24:50.554Z,17.50
2022-09-02T08:27:19.176Z,20.23
2022-09-02T08:29:48.447Z,17.00
2022-09-02T08:32:19.072Z,16.60
2022-09-02T08:34:47.910Z,20.70
2022-09-02T08:37:17.057Z,18.50
2022-09-02T08:39:49.657Z,19.10
2022-09-02T08:42:24.314Z,19.48
2022-09-02T08:44:59.579Z,15.45
2022-09-02T08:47:33.602Z,20.42
2022-09-02T08:50:07.438Z,16.48
2022-09-02T08:52:40.804Z,18.13
2022-09-02T08:55:15.591Z,19.20
2022-09-02T08:57:47.396Z,16.60
2022-09-02T09:00:17.555Z,20.30
2022-09-02T09:02:58.143Z,19.35
2022-09-02T09:05:39.233Z,13.52
2022-09-02T09:08:21.637Z,14.98
2022-09-02T09:11:00.688Z,15.18
2022-09-02T09:14:00.011Z,16.45
2022-09-02T09:16:37.478Z,15.75
2022-09-02T09:19:13.644Z,11.88
2022-09-02T09:21:43.285Z,10.13
2022-09-02T09:24:24.104Z,13.40
2022-09-02T09:26:55.611Z,13.75
2022-09-02T09:29:24.151Z,19.90
2022-09-02T09:32:00.285Z,16.88
2022-09-02T09:35:02.680Z,12.73
2022-09-02T09:37:36.255Z,14.82
2022-09-02T09:40:25.058Z,12.73
2022-09-02T09:42:57.868Z,13.27
2022-09-02T09:45:33.889Z,14.43
2022-09-02T09:48:27.762Z,16.13
2022-09-02T09:51:16.268Z,14.45
2022-09-02T09:53:46.197Z,11.98
2022-09-02T09:56:37.480Z,9.88
2022-09-02T09:59:11.019Z,12.63
2022-09-02T10:01:39.511Z,11.82
2022-09-02T10:04:39.203Z,10.65
2022-09-02T10:07:01.125Z,12.70
2022-09-02T10:09:37.614Z,12.85
2022-09-02T10:12:09.017Z,11.73
2022-09-02T10:14:41.241Z,10.70
2022-09-02T10:17:25.160Z,13.88
2022-09-02T10:20:01.068Z,13.77
2022-09-02T10:23:06.333Z,18.55
2022-09-02T10:25:46.760Z,13.23
2022-09-02T10:28:31.450Z,12.38
2022-09-02T10:31:11.788Z,15.45
2022-09-02T10:33:51.195Z,11.95
2022-09-02T10:36:29.014Z,10.05
2022-09-02T10:39:13.612Z,11.30
2022-09-02T10:44:32.898Z,11.35
2022-09-02T10:47:04.418Z,8.32
2022-09-02T10:49:48.871Z,14.30
2022-09-02T10:52:42.998Z,15.60
2022-09-02T10:55:21.709Z,12.65
2022-09-02T10:57:56.548Z,10.30
2022-09-02T11:00:26.123Z,9.93
2022-09-02T11:03:05.131Z,10.85
2022-09-02T11:05:44.998Z,13.82
2022-09-02T11:08:17.845Z,12.50
2022-09-02T11:10:56.572Z,9.32
2022-09-02T11:13:33.351Z,6.95
2022-09-02T11:16:07.012Z,11.13
2022-09-02T11:18:43.892Z,12.50
2022-09-02T11:21:26.400Z,10.95
2022-09-02T11:24:07.053Z,9.10
2022-09-02T11:26:42.101Z,10.85
2022-09-02T11:29:16.062Z,11.48
2022-09-02T11:31:48.407Z,10.60
2022-09-02T11:34:26.058Z,7.18
2022-09-02T11:36:54.788Z,7.97
2022-09-02T11:39:51.766Z,8.13
2022-09-02T11:42:39.290Z,8.15
2022-09-02T11:45:25.537Z,10.70
2022-09-02T11:48:33.795Z,13.55
2022-09-02T11:51:25.133Z,17.98
2022-09-02T11:53:56.153Z,11.55
2022-09-02T11:56:30.603Z,10.70
2022-09-02T11:59:00.738Z,11.80
2022-09-02T12:01:33.366Z,17.77
2022-09-02T12:07:26.888Z,16.38
2022-09-02T12:10:02.974Z,15.95
2022-09-02T12:13:08.125Z,13.45
2022-09-02T12:15:40.804Z,10.50
2022-09-02T12:18:15.743Z,11.63
2022-09-02T12:21:16.476Z,9.70
2022-09-02T12:24:13.374Z,10.63
2022-09-02T12:27:20.754Z,14.43
2022-09-02T12:29:49.356Z,12.27
2022-09-02T12:33:05.363Z,12.73
2022-09-02T12:35:56.917Z,13.45
2022-09-02T12:38:32.533Z,9.55
2022-09-02T12:41:22.918Z,14.38
2022-09-02T12:44:19.971Z,12.40
2022-09-02T12:47:13.487Z,11.50
2022-09-02T12:49:52.267Z,13.13
2022-09-02T12:52:45.436Z,11.20
2022-09-02T12:55:27.321Z,11.70
2022-09-02T12:58:07.823Z,14.82
2022-09-02T13:00:46.765Z,14.13
2022-09-02T13:03:37.885Z,13.73
2022-09-02T13:06:14.038Z,15.52
2022-09-02T13:09:10.978Z,13.52
2022-09-02T13:12:10.269Z,19.42
2022-09-02T13:14:55.743Z,11.75
2022-09-02T13:17:37.697Z,12.32
2022-09-02T13:20:39.084Z,13.13
2022-09-02T13:23:43.147Z,16.40
2022-09-02T13:26:50.604Z,13.75
2022-09-02T13:29:48.075Z,14.10
2022-09-02T13:32:23.816Z,13.10
2022-09-02T13:34:55.642Z,16.10
2022-09-02T13:37:33.081Z,12.20
2022-09-02T13:40:08.336Z,13.50
2022-09-02T13:42:38.561Z,17.35
2022-09-02T13:45:15.263Z,14.43
2022-09-02T13:47:49.949Z,18.23
2022-09-02T13:50:24.717Z,12.75
2022-09-02T13:53:58.875Z,17.40
2022-09-02T13:55:52.177Z,17.05
2022-09-02T13:58:42.669Z,14.38
2022-09-02T14:01:24.622Z,15.40
2022-09-02T14:03:58.190Z,15.23
2022-09-02T14:06:30.265Z,14.75
2022-09-02T14:09:02.091Z,12.57
2022-09-02T14:11:36.223Z,18.92
2022-09-02T14:14:06.759Z,15.57
2022-09-02T14:16:38.656Z,17.25
2022-09-02T14:19:14.816Z,18.05
2022-09-02T14:21:48.529Z,13.65
2022-09-02T14:24:24.823Z,15.80
2022-09-02T14:26:57.481Z,13.70
2022-09-02T14:29:32.881Z,14.63
2022-09-02T14:32:13.144Z,16.55
2022-09-02T14:34:44.042Z,16.30
2022-09-02T14:37:24.714Z,16.20
2022-09-02T14:39:55.379Z,15.10
2022-09-02T14:42:28.386Z,15.82
2022-09-02T14:44:59.934Z,20.33
2022-09-02T14:47:29.120Z,13.75
2022-09-02T14:49:58.151Z,13.13
2022-09-02T14:52:29.798Z,17.73
2022-09-02T14:54:59.547Z,14.55
2022-09-02T14:57:32.627Z,17.25
2022-09-02T15:00:08.841Z,15.20
2022-09-02T15:02:40.383Z,15.63
2022-09-02T15:05:12.278Z,15.65
2022-09-02T15:07:41.219Z,17.15
2022-09-02T15:10:12.147Z,13.80
2022-09-02T15:12:46.380Z,13.45
2022-09-02T15:15:18.053Z,12.98
2022-09-02T15:17:46.910Z,15.35
2022-09-02T15:20:18.044Z,14.20
2022-09-02T15:22:47.985Z,13.73
2022-09-02T15:25:16.527Z,15.45
2022-09-02T15:27:44.940Z,16.23
2022-09-02T15:30:14.448Z,14.98
2022-09-02T15:32:45.859Z,17.90
2022-09-02T15:35:15.226Z,17.88
2022-09-02T15:37:43.718Z,21.48
2022-09-02T15:40:12.934Z,14.45
2022-09-02T15:42:41.549Z,15.43
2022-09-02T15:45:12.456Z,14.30
2022-09-02T15:47:41.631Z,19.45
2022-09-02T15:50:11.742Z,16.13
2022-09-02T15:52:48.991Z,15.32
2022-09-02T15:55:22.714Z,13.55
2022-09-02T15:58:02.048Z,15.57
2022-09-02T16:00:32.215Z,17.55
2022-09-02T16:03:01.467Z,20.00
2022-09-02T16:05:32.557Z,19.63
2022-09-02T16:08:01.714Z,16.88
2022-09-02T16:10:31.056Z,16.48
2022-09-02T16:13:00.855Z,16.20
2022-09-02T16:15:30.165Z,17.85
2022-09-02T16:18:02.698Z,17.52
2022-09-02T16:20:32.493Z,10.20
2022-09-02T16:23:00.768Z,16.15
2022-09-02T16:25:29.156Z,12.10
2022-09-02T16:27:57.752Z,14.20
2022-09-02T16:30:26.590Z,15.82
2022-09-02T16:32:55.263Z,18.35
2022-09-02T16:35:23.865Z,19.20
2022-09-02T16:37:57.180Z,18.00
2022-09-02T16:40:30.085Z,17.40
2022-09-02T16:42:59.203Z,14.20
2022-09-02T16:45:27.945Z,13.68
2022-09-02T16:48:00.605Z,19.42
2022-09-02T16:50:31.513Z,12.57
2022-09-02T16:53:01.824Z,15.95
2022-09-02T16:55:31.040Z,14.00
2022-09-02T16:58:07.177Z,21.63
2022-09-02T17:00:35.547Z,14.52
2022-09-02T17:03:04.679Z,17.15
2022-09-02T17:05:36.177Z,13.35
2022-09-02T17:08:06.648Z,14.32
2022-09-02T17:10:36.453Z,14.70
2022-09-02T17:13:05.276Z,15.25
2022-09-02T17:15:33.706Z,16.73
2022-09-02T17:18:02.537Z,14.60
2022-09-02T17:20:31.066Z,18.73
2022-09-02T17:22:59.544Z,14.45
2022-09-02T17:25:29.526Z,18.02
2022-09-02T17:27:57.900Z,17.33
2022-09-02T17:30:26.358Z,21.15
2022-09-02T17:32:56.738Z,19.67
2022-09-02T17:35:26.016Z,17.52
2022-09-02T17:37:54.528Z,21.17
2022-09-02T17:40:39.916Z,21.02
2022-09-02T17:43:10.085Z,23.58
2022-09-02T17:45:39.001Z,24.52
2022-09-02T17:48:34.281Z,32.08
2022-09-02T17:50:56.051Z,36.13
2022-09-02T17:53:26.702Z,38.08
2022-09-02T17:56:02.893Z,28.45
2022-09-02T17:58:52.680Z,25.17
2022-09-02T18:01:26.026Z,26.02
2022-09-02T18:04:07.670Z,21.67
2022-09-02T18:06:46.889Z,23.85
2022-09-02T18:09:16.451Z,25.42
2022-09-02T18:11:44.790Z,24.15
2022-09-02T18:14:28.602Z,22.45
2022-09-02T18:17:10.021Z,21.08
2022-09-02T18:19:56.074Z,23.67
2022-09-02T18:22:44.460Z,20.75
2022-09-02T18:25:32.387Z,20.73
2022-09-02T18:28:14.768Z,20.83
2022-09-02T18:30:49.911Z,21.55
2022-09-02T18:33:42.974Z,19.92
2022-09-02T18:36:24.658Z,17.33
2022-09-02T18:39:06.604Z,20.60
2022-09-02T18:41:52.150Z,22.98
2022-09-02T18:44:37.263Z,18.98
2022-09-02T18:47:11.752Z,18.80
2022-09-02T18:49:40.649Z,16.58
2022-09-02T18:52:11.643Z,15.68
2022-09-02T18:54:47.741Z,14.88
2022-09-02T18:57:16.697Z,14.18
2022-09-02T18:59:51.379Z,9.95
2022-09-02T19:02:33.017Z,13.70
2022-09-02T19:05:07.234Z,12.90
2022-09-02T19:07:54.921Z,9.98
2022-09-02T19:10:24.706Z,11.52
2022-09-02T19:12:54.432Z,6.78
2022-09-02T19:15:23.212Z,12.82
2022-09-02T19:17:54.432Z,10.77
2022-09-02T19:20:23.966Z,7.90
2022-09-02T19:22:56.090Z,7.70
2022-09-02T19:25:29.123Z,10.70
2022-09-02T19:28:02.593Z,8.57
2022-09-02T19:30:37.242Z,10.68
2022-09-02T19:33:09.455Z,8.57
2022-09-02T19:35:39.256Z,9.63
2022-09-02T19:38:07.963Z,10.55
2022-09-02T19:40:37.022Z,10.20
2022-09-02T19:43:07.992Z,9.77
2022-09-02T19:45:37.903Z,8.85
2022-09-02T19:48:11.748Z,10.70
2022-09-02T19:50:44.814Z,10.52
2022-09-02T19:53:19.771Z,9.80
2022-09-02T19:55:48.713Z,10.77
2022-09-02T19:58:18.791Z,12.25
2022-09-02T20:00:48.321Z,9.98
2022-09-02T20:03:18.710Z,10.45
2022-09-02T20:05:49.380Z,8.68
2022-09-02T20:08:19.952Z,12.35
2022-09-02T20:10:55.769Z,12.48
2022-09-02T20:13:25.695Z,11.35
2022-09-02T20:15:56.023Z,10.98
2022-09-02T20:18:28.514Z,10.82
2022-09-02T20:20:59.689Z,8.50
2022-09-02T20:23:43.533Z,11.38
2022-09-02T20:26:27.729Z,13.48
2022-09-02T20:29:10.290Z,12.07
2022-09-02T20:31:50.484Z,10.57
2022-09-02T20:34:42.645Z,14.90
2022-09-02T20:37:24.478Z,17.08
2022-09-02T20:40:21.699Z,18.23
2022-09-02T20:43:29.066Z,15.98
2022-09-02T20:46:03.570Z,15.60
2022-09-02T20:48:47.680Z,18.80
2022-09-02T20:51:24.699Z,18.65
2022-09-02T20:54:14.041Z,25.05
2022-09-02T20:56:52.695Z,25.33
2022-09-02T20:59:34.832Z,26.63
2022-09-02T21:02:05.900Z,23.10
2022-09-02T21:04:40.396Z,27.38
2022-09-02T21:07:19.471Z,34.80
2022-09-02T21:09:54.585Z,30.83
2022-09-02T21:12:36.173Z,28.75
2022-09-02T21:15:11.310Z,31.33
2022-09-02T21:17:48.811Z,29.02
2022-09-02T21:20:24.980Z,23.30
2022-09-02T21:22:59.654Z,23.15
2022-09-02T21:25:35.796Z,29.00
2022-09-02T21:28:09.287Z,29.50
2022-09-02T21:30:42.624Z,30.10
2022-09-02T21:33:13.424Z,29.98
2022-09-02T21:35:44.925Z,31.58
2022-09-02T21:38:26.572Z,27.95
2022-09-02T21:41:09.085Z,25.00
2022-09-02T21:43:55.847Z,18.65
2022-09-02T21:46:34.629Z,17.38
2022-09-02T21:49:13.518Z,16.15
2022-09-02T21:51:51.368Z,14.82
2022-09-02T21:54:33.729Z,13.95
2022-09-02T21:57:20.319Z,10.32
2022-09-02T21:59:56.632Z,7.60
2022-09-02T22:02:34.393Z,10.02
2022-09-02T22:05:09.176Z,8.55
2022-09-02T22:07:44.582Z,6.95
2022-09-02T22:10:24.570Z,7.00
2022-09-02T22:12:55.788Z,5.63
2022-09-02T22:15:33.707Z,6.60
2022-09-02T22:18:11.376Z,4.60
2022-09-02T22:20:45.283Z,4.97
2022-09-02T22:23:25.903Z,6.55
2022-09-02T22:26:08.806Z,7.53
2022-09-02T22:28:45.940Z,6.72
2022-09-02T22:31:18.224Z,7.63
2022-09-02T22:33:56.028Z,7.07
2022-09-02T22:36:36.734Z,7.65
2022-09-02T22:39:08.023Z,8.15
2022-09-02T22:41:51.242Z,6.95
2022-09-02T22:44:49.650Z,8.55
2022-09-02T22:47:39.356Z,14.52
2022-09-02T22:50:30.492Z,9.65
2022-09-02T22:52:59.866Z,11.43
2022-09-02T22:55:51.138Z,7.30
2022-09-02T22:58:44.941Z,7.80
2022-09-02T23:01:20.535Z,6.45
2022-09-02T23:04:02.857Z,7.90
2022-09-02T23:06:34.082Z,8.00
2022-09-02T23:09:15.226Z,18.50
2022-09-02T23:12:05.754Z,20.13
2022-09-02T23:14:45.096Z,18.55
2022-09-02T23:17:24.166Z,39.53
2022-09-02T23:20:12.590Z,32.47
2022-09-02T23:23:12.016Z,37.20
2022-09-02T23:26:15.342Z,37.25
2022-09-02T23:29:02.603Z,37.15
2022-09-02T23:31:47.636Z,32.83
2022-09-02T23:34:31.074Z,33.83
2022-09-02T23:37:10.098Z,35.83
2022-09-02T23:39:51.625Z,35.38
2022-09-02T23:42:20.917Z,34.65
2022-09-02T23:45:04.509Z,31.27
2022-09-02T23:47:43.574Z,33.72
2022-09-02T23:50:25.225Z,27.45
2022-09-02T23:53:00.201Z,25.85
2022-09-02T23:55:39.541Z,20.25
2022-09-02T23:58:23.540Z,21.90
